TAF KCXO
AMD KCXO 280941Z 2810/2906 00000KT P6SM -RA BKN003 BKN028 OVC035 FM281100 VRB02KT 5SM BR BKN003 OVC024 FM281600 34005KT P6SM BKN012 FM282100 35007KT P6SM SCT025 FM290100 VRB04KT P6SM FEW250=
METAR KCXO
WC KCXO
WS KCXO
WV KCXO